sensor_id;sensor_type;location;lat;lon;timestamp;P1;durP1;ratioP1;P2;durP2;ratioP2
67904;SDS011;54709;43.614;1.576;2023-03-05T00:01:42;55.70;;;35.42;;
67904;SDS011;54709;43.614;1.576;2023-03-05T00:03:53;57.10;;;34.67;;
67904;SDS011;54709;43.614;1.576;2023-03-05T00:06:20;55.60;;;35.10;;
67904;SDS011;54709;43.614;1.576;2023-03-05T00:08:47;59.15;;;36.17;;
67904;SDS011;54709;43.614;1.576;2023-03-05T00:11:13;49.83;;;33.80;;
67904;SDS011;54709;43.614;1.576;2023-03-05T00:13:38;56.72;;;34.97;;
67904;SDS011;54709;43.614;1.576;2023-03-05T00:16:05;54.85;;;35.38;;
67904;SDS011;54709;43.614;1.576;2023-03-05T00:18:32;51.95;;;34.70;;
67904;SDS011;54709;43.614;1.576;2023-03-05T00:20:57;54.90;;;35.17;;
67904;SDS011;54709;43.614;1.576;2023-03-05T00:23:23;52.45;;;34.65;;
67904;SDS011;54709;43.614;1.576;2023-03-05T00:25:48;53.53;;;34.78;;
67904;SDS011;54709;43.614;1.576;2023-03-05T00:28:13;60.47;;;34.30;;
67904;SDS011;54709;43.614;1.576;2023-03-05T00:30:39;53.53;;;34.30;;
67904;SDS011;54709;43.614;1.576;2023-03-05T00:33:05;58.45;;;35.88;;
67904;SDS011;54709;43.614;1.576;2023-03-05T00:35:30;53.78;;;33.78;;
67904;SDS011;54709;43.614;1.576;2023-03-05T00:37:56;55.05;;;34.47;;
67904;SDS011;54709;43.614;1.576;2023-03-05T00:40:21;51.78;;;34.10;;
67904;SDS011;54709;43.614;1.576;2023-03-05T00:42:47;56.40;;;34.55;;
67904;SDS011;54709;43.614;1.576;2023-03-05T00:45:12;51.53;;;34.13;;
67904;SDS011;54709;43.614;1.576;2023-03-05T00:47:38;57.90;;;35.63;;
67904;SDS011;54709;43.614;1.576;2023-03-05T00:50:05;53.85;;;34.25;;
67904;SDS011;54709;43.614;1.576;2023-03-05T00:52:31;55.92;;;36.00;;
67904;SDS011;54709;43.614;1.576;2023-03-05T00:54:56;57.65;;;35.50;;
67904;SDS011;54709;43.614;1.576;2023-03-05T00:57:22;56.55;;;34.88;;
67904;SDS011;54709;43.614;1.576;2023-03-05T00:59:47;55.72;;;35.72;;
67904;SDS011;54709;43.614;1.576;2023-03-05T01:02:12;56.58;;;35.75;;
67904;SDS011;54709;43.614;1.576;2023-03-05T01:04:38;53.13;;;34.58;;
67904;SDS011;54709;43.614;1.576;2023-03-05T01:07:03;54.58;;;34.75;;
67904;SDS011;54709;43.614;1.576;2023-03-05T01:09:29;54.65;;;36.13;;
67904;SDS011;54709;43.614;1.576;2023-03-05T01:11:54;55.80;;;35.70;;
67904;SDS011;54709;43.614;1.576;2023-03-05T01:14:20;52.10;;;35.42;;
67904;SDS011;54709;43.614;1.576;2023-03-05T01:16:46;53.83;;;34.50;;
67904;SDS011;54709;43.614;1.576;2023-03-05T01:19:12;55.95;;;35.25;;
67904;SDS011;54709;43.614;1.576;2023-03-05T01:21:39;55.33;;;35.40;;
67904;SDS011;54709;43.614;1.576;2023-03-05T01:24:05;53.65;;;34.50;;
67904;SDS011;54709;43.614;1.576;2023-03-05T01:26:31;51.53;;;34.40;;
67904;SDS011;54709;43.614;1.576;2023-03-05T01:28:56;56.85;;;35.65;;
67904;SDS011;54709;43.614;1.576;2023-03-05T01:31:22;54.63;;;35.25;;
67904;SDS011;54709;43.614;1.576;2023-03-05T01:33:47;52.03;;;34.95;;
67904;SDS011;54709;43.614;1.576;2023-03-05T01:36:16;55.03;;;35.75;;
67904;SDS011;54709;43.614;1.576;2023-03-05T01:38:42;56.70;;;34.42;;
67904;SDS011;54709;43.614;1.576;2023-03-05T01:41:09;53.85;;;34.97;;
67904;SDS011;54709;43.614;1.576;2023-03-05T01:43:35;54.65;;;35.15;;
67904;SDS011;54709;43.614;1.576;2023-03-05T01:54:36;53.50;;;33.72;;
67904;SDS011;54709;43.614;1.576;2023-03-05T01:59:55;52.97;;;33.88;;
67904;SDS011;54709;43.614;1.576;2023-03-05T02:02:22;56.72;;;34.40;;
67904;SDS011;54709;43.614;1.576;2023-03-05T02:04:50;55.03;;;34.75;;
67904;SDS011;54709;43.614;1.576;2023-03-05T02:07:18;55.22;;;33.92;;
67904;SDS011;54709;43.614;1.576;2023-03-05T02:09:44;59.10;;;35.67;;
67904;SDS011;54709;43.614;1.576;2023-03-05T02:12:10;58.17;;;33.65;;
67904;SDS011;54709;43.614;1.576;2023-03-05T02:14:35;53.80;;;34.10;;
67904;SDS011;54709;43.614;1.576;2023-03-05T02:17:01;58.10;;;35.45;;
67904;SDS011;54709;43.614;1.576;2023-03-05T02:19:27;54.22;;;33.33;;
67904;SDS011;54709;43.614;1.576;2023-03-05T02:21:52;53.67;;;34.58;;
67904;SDS011;54709;43.614;1.576;2023-03-05T02:24:30;54.08;;;35.15;;
67904;SDS011;54709;43.614;1.576;2023-03-05T02:26:58;50.40;;;32.97;;
67904;SDS011;54709;43.614;1.576;2023-03-05T02:29:24;56.53;;;35.30;;
67904;SDS011;54709;43.614;1.576;2023-03-05T02:31:51;55.42;;;33.70;;
67904;SDS011;54709;43.614;1.576;2023-03-05T02:34:17;52.60;;;34.33;;
67904;SDS011;54709;43.614;1.576;2023-03-05T02:36:42;60.92;;;35.05;;
67904;SDS011;54709;43.614;1.576;2023-03-05T02:39:08;54.90;;;33.38;;
67904;SDS011;54709;43.614;1.576;2023-03-05T02:41:34;52.90;;;34.67;;
67904;SDS011;54709;43.614;1.576;2023-03-05T02:43:59;51.80;;;33.33;;
67904;SDS011;54709;43.614;1.576;2023-03-05T02:46:25;51.58;;;33.35;;
67904;SDS011;54709;43.614;1.576;2023-03-05T02:48:50;51.33;;;32.97;;
67904;SDS011;54709;43.614;1.576;2023-03-05T02:51:16;52.08;;;34.15;;
67904;SDS011;54709;43.614;1.576;2023-03-05T02:53:41;57.78;;;34.78;;
67904;SDS011;54709;43.614;1.576;2023-03-05T02:56:06;54.58;;;35.78;;
67904;SDS011;54709;43.614;1.576;2023-03-05T02:58:32;52.42;;;34.22;;
67904;SDS011;54709;43.614;1.576;2023-03-05T03:00:57;52.20;;;33.47;;
67904;SDS011;54709;43.614;1.576;2023-03-05T03:03:23;52.47;;;34.97;;
67904;SDS011;54709;43.614;1.576;2023-03-05T03:05:48;58.40;;;36.08;;
67904;SDS011;54709;43.614;1.576;2023-03-05T03:08:13;56.03;;;35.75;;
67904;SDS011;54709;43.614;1.576;2023-03-05T03:10:39;58.58;;;35.10;;
67904;SDS011;54709;43.614;1.576;2023-03-05T03:13:05;56.17;;;36.33;;
67904;SDS011;54709;43.614;1.576;2023-03-05T03:15:30;59.60;;;36.35;;
67904;SDS011;54709;43.614;1.576;2023-03-05T03:17:56;59.15;;;36.70;;
67904;SDS011;54709;43.614;1.576;2023-03-05T03:20:21;61.33;;;37.35;;
67904;SDS011;54709;43.614;1.576;2023-03-05T03:22:47;57.30;;;35.58;;
67904;SDS011;54709;43.614;1.576;2023-03-05T03:25:13;57.97;;;35.53;;
67904;SDS011;54709;43.614;1.576;2023-03-05T03:27:40;54.85;;;35.47;;
67904;SDS011;54709;43.614;1.576;2023-03-05T03:30:05;54.33;;;34.47;;
67904;SDS011;54709;43.614;1.576;2023-03-05T03:32:32;56.13;;;35.22;;
67904;SDS011;54709;43.614;1.576;2023-03-05T03:34:58;55.83;;;34.60;;
67904;SDS011;54709;43.614;1.576;2023-03-05T03:37:23;60.15;;;36.72;;
67904;SDS011;54709;43.614;1.576;2023-03-05T03:39:49;53.33;;;34.92;;
67904;SDS011;54709;43.614;1.576;2023-03-05T03:42:18;58.35;;;35.92;;
67904;SDS011;54709;43.614;1.576;2023-03-05T03:44:45;61.15;;;35.67;;
67904;SDS011;54709;43.614;1.576;2023-03-05T03:47:11;55.78;;;35.63;;
67904;SDS011;54709;43.614;1.576;2023-03-05T03:49:37;56.78;;;34.13;;
67904;SDS011;54709;43.614;1.576;2023-03-05T03:52:02;59.53;;;36.90;;
67904;SDS011;54709;43.614;1.576;2023-03-05T03:54:28;60.08;;;37.50;;
67904;SDS011;54709;43.614;1.576;2023-03-05T03:56:53;59.85;;;37.75;;
67904;SDS011;54709;43.614;1.576;2023-03-05T03:59:19;59.00;;;37.22;;
67904;SDS011;54709;43.614;1.576;2023-03-05T04:01:44;60.20;;;36.92;;
67904;SDS011;54709;43.614;1.576;2023-03-05T04:04:10;65.05;;;38.03;;
67904;SDS011;54709;43.614;1.576;2023-03-05T04:06:36;57.28;;;36.08;;
67904;SDS011;54709;43.614;1.576;2023-03-05T04:09:02;58.38;;;36.75;;
67904;SDS011;54709;43.614;1.576;2023-03-05T04:11:28;57.70;;;36.28;;
67904;SDS011;54709;43.614;1.576;2023-03-05T04:13:54;57.47;;;34.90;;
67904;SDS011;54709;43.614;1.576;2023-03-05T04:16:19;55.40;;;34.17;;
67904;SDS011;54709;43.614;1.576;2023-03-05T04:18:45;58.15;;;35.03;;
67904;SDS011;54709;43.614;1.576;2023-03-05T04:21:10;52.30;;;33.78;;
67904;SDS011;54709;43.614;1.576;2023-03-05T04:23:36;57.08;;;35.47;;
67904;SDS011;54709;43.614;1.576;2023-03-05T04:26:02;57.22;;;36.17;;
67904;SDS011;54709;43.614;1.576;2023-03-05T04:28:27;56.85;;;34.97;;
67904;SDS011;54709;43.614;1.576;2023-03-05T04:30:53;55.70;;;34.88;;
67904;SDS011;54709;43.614;1.576;2023-03-05T04:33:18;61.17;;;36.95;;
67904;SDS011;54709;43.614;1.576;2023-03-05T04:35:44;56.63;;;34.75;;
67904;SDS011;54709;43.614;1.576;2023-03-05T04:38:09;59.40;;;35.75;;
67904;SDS011;54709;43.614;1.576;2023-03-05T04:40:35;56.92;;;36.28;;
67904;SDS011;54709;43.614;1.576;2023-03-05T04:43:00;60.20;;;36.42;;
67904;SDS011;54709;43.614;1.576;2023-03-05T04:45:26;59.35;;;35.05;;
67904;SDS011;54709;43.614;1.576;2023-03-05T04:47:51;59.58;;;35.95;;
67904;SDS011;54709;43.614;1.576;2023-03-05T04:50:17;57.35;;;35.53;;
67904;SDS011;54709;43.614;1.576;2023-03-05T04:52:43;55.92;;;34.65;;
67904;SDS011;54709;43.614;1.576;2023-03-05T04:55:10;55.67;;;35.42;;
67904;SDS011;54709;43.614;1.576;2023-03-05T04:57:36;59.08;;;36.63;;
67904;SDS011;54709;43.614;1.576;2023-03-05T05:00:03;57.67;;;35.47;;
67904;SDS011;54709;43.614;1.576;2023-03-05T05:02:31;56.22;;;35.35;;
67904;SDS011;54709;43.614;1.576;2023-03-05T05:04:57;56.65;;;35.97;;
67904;SDS011;54709;43.614;1.576;2023-03-05T05:07:22;54.10;;;34.95;;
67904;SDS011;54709;43.614;1.576;2023-03-05T05:09:47;59.60;;;35.45;;
67904;SDS011;54709;43.614;1.576;2023-03-05T05:12:13;57.42;;;35.17;;
67904;SDS011;54709;43.614;1.576;2023-03-05T05:14:38;58.42;;;34.90;;
67904;SDS011;54709;43.614;1.576;2023-03-05T05:17:04;58.00;;;34.25;;
67904;SDS011;54709;43.614;1.576;2023-03-05T05:19:30;56.60;;;35.05;;
67904;SDS011;54709;43.614;1.576;2023-03-05T05:21:56;55.40;;;33.78;;
67904;SDS011;54709;43.614;1.576;2023-03-05T05:24:22;59.13;;;35.45;;
67904;SDS011;54709;43.614;1.576;2023-03-05T05:26:47;58.42;;;35.50;;
67904;SDS011;54709;43.614;1.576;2023-03-05T05:29:13;60.95;;;35.20;;
67904;SDS011;54709;43.614;1.576;2023-03-05T05:31:38;57.78;;;36.30;;
67904;SDS011;54709;43.614;1.576;2023-03-05T05:34:04;54.47;;;35.13;;
67904;SDS011;54709;43.614;1.576;2023-03-05T05:36:29;53.60;;;34.83;;
67904;SDS011;54709;43.614;1.576;2023-03-05T05:38:54;57.13;;;35.15;;
67904;SDS011;54709;43.614;1.576;2023-03-05T05:41:20;58.28;;;35.67;;
67904;SDS011;54709;43.614;1.576;2023-03-05T05:43:46;54.42;;;34.33;;
67904;SDS011;54709;43.614;1.576;2023-03-05T05:46:12;55.75;;;34.17;;
67904;SDS011;54709;43.614;1.576;2023-03-05T05:48:39;56.45;;;34.17;;
67904;SDS011;54709;43.614;1.576;2023-03-05T05:51:09;60.50;;;35.92;;
67904;SDS011;54709;43.614;1.576;2023-03-05T05:53:36;55.65;;;34.60;;
67904;SDS011;54709;43.614;1.576;2023-03-05T05:56:05;57.55;;;35.17;;
67904;SDS011;54709;43.614;1.576;2023-03-05T05:58:31;58.08;;;35.72;;
67904;SDS011;54709;43.614;1.576;2023-03-05T06:00:56;56.35;;;34.78;;
67904;SDS011;54709;43.614;1.576;2023-03-05T06:03:22;56.72;;;34.50;;
67904;SDS011;54709;43.614;1.576;2023-03-05T06:05:47;58.53;;;34.67;;
67904;SDS011;54709;43.614;1.576;2023-03-05T06:08:13;56.47;;;35.30;;
67904;SDS011;54709;43.614;1.576;2023-03-05T06:10:38;55.92;;;34.83;;
67904;SDS011;54709;43.614;1.576;2023-03-05T06:13:03;55.17;;;33.88;;
67904;SDS011;54709;43.614;1.576;2023-03-05T06:15:29;58.53;;;35.03;;
67904;SDS011;54709;43.614;1.576;2023-03-05T06:17:55;58.15;;;35.25;;
67904;SDS011;54709;43.614;1.576;2023-03-05T06:20:20;60.38;;;34.88;;
67904;SDS011;54709;43.614;1.576;2023-03-05T06:22:47;58.28;;;36.50;;
67904;SDS011;54709;43.614;1.576;2023-03-05T06:25:12;64.60;;;37.88;;
67904;SDS011;54709;43.614;1.576;2023-03-05T06:27:37;57.75;;;34.75;;
67904;SDS011;54709;43.614;1.576;2023-03-05T06:30:04;60.20;;;35.92;;
67904;SDS011;54709;43.614;1.576;2023-03-05T06:32:30;57.30;;;35.45;;
67904;SDS011;54709;43.614;1.576;2023-03-05T06:34:55;61.28;;;35.75;;
67904;SDS011;54709;43.614;1.576;2023-03-05T06:37:21;60.58;;;36.13;;
67904;SDS011;54709;43.614;1.576;2023-03-05T06:39:46;58.88;;;36.70;;
67904;SDS011;54709;43.614;1.576;2023-03-05T06:42:11;60.38;;;37.53;;
67904;SDS011;54709;43.614;1.576;2023-03-05T06:44:40;60.92;;;37.47;;
67904;SDS011;54709;43.614;1.576;2023-03-05T06:47:06;62.45;;;38.25;;
67904;SDS011;54709;43.614;1.576;2023-03-05T06:49:33;63.47;;;37.65;;
67904;SDS011;54709;43.614;1.576;2023-03-05T06:51:58;60.92;;;37.45;;
67904;SDS011;54709;43.614;1.576;2023-03-05T06:54:24;60.92;;;37.28;;
67904;SDS011;54709;43.614;1.576;2023-03-05T06:56:49;59.45;;;36.47;;
67904;SDS011;54709;43.614;1.576;2023-03-05T06:59:15;62.80;;;38.88;;
67904;SDS011;54709;43.614;1.576;2023-03-05T07:01:41;65.95;;;38.10;;
67904;SDS011;54709;43.614;1.576;2023-03-05T07:04:07;61.08;;;37.72;;
67904;SDS011;54709;43.614;1.576;2023-03-05T07:06:34;62.30;;;38.08;;
67904;SDS011;54709;43.614;1.576;2023-03-05T07:09:00;64.13;;;38.65;;
67904;SDS011;54709;43.614;1.576;2023-03-05T07:11:27;61.50;;;38.20;;
67904;SDS011;54709;43.614;1.576;2023-03-05T07:13:52;59.45;;;37.30;;
67904;SDS011;54709;43.614;1.576;2023-03-05T07:16:22;66.88;;;39.20;;
67904;SDS011;54709;43.614;1.576;2023-03-05T07:18:49;62.78;;;37.20;;
67904;SDS011;54709;43.614;1.576;2023-03-05T07:21:19;58.20;;;36.97;;
67904;SDS011;54709;43.614;1.576;2023-03-05T07:23:45;59.08;;;37.13;;
67904;SDS011;54709;43.614;1.576;2023-03-05T07:26:11;65.85;;;40.10;;
67904;SDS011;54709;43.614;1.576;2023-03-05T07:28:37;65.97;;;39.70;;
67904;SDS011;54709;43.614;1.576;2023-03-05T07:31:06;66.07;;;40.08;;
67904;SDS011;54709;43.614;1.576;2023-03-05T07:33:33;65.75;;;39.10;;
67904;SDS011;54709;43.614;1.576;2023-03-05T07:36:00;64.60;;;39.00;;
67904;SDS011;54709;43.614;1.576;2023-03-05T07:38:26;60.92;;;39.17;;
67904;SDS011;54709;43.614;1.576;2023-03-05T07:40:51;63.75;;;38.97;;
67904;SDS011;54709;43.614;1.576;2023-03-05T07:43:17;67.05;;;40.92;;
67904;SDS011;54709;43.614;1.576;2023-03-05T07:45:43;65.72;;;39.58;;
67904;SDS011;54709;43.614;1.576;2023-03-05T07:48:13;62.47;;;40.22;;
67904;SDS011;54709;43.614;1.576;2023-03-05T07:50:40;68.55;;;41.50;;
67904;SDS011;54709;43.614;1.576;2023-03-05T07:53:06;63.75;;;39.63;;
67904;SDS011;54709;43.614;1.576;2023-03-05T07:55:31;70.25;;;41.70;;
67904;SDS011;54709;43.614;1.576;2023-03-05T07:57:57;69.50;;;42.08;;
67904;SDS011;54709;43.614;1.576;2023-03-05T08:00:22;64.78;;;41.20;;
67904;SDS011;54709;43.614;1.576;2023-03-05T08:02:47;63.20;;;38.50;;
67904;SDS011;54709;43.614;1.576;2023-03-05T08:05:14;62.88;;;38.88;;
67904;SDS011;54709;43.614;1.576;2023-03-05T08:07:40;65.35;;;39.35;;
67904;SDS011;54709;43.614;1.576;2023-03-05T08:10:05;62.22;;;38.40;;
67904;SDS011;54709;43.614;1.576;2023-03-05T08:12:32;63.03;;;39.08;;
67904;SDS011;54709;43.614;1.576;2023-03-05T08:14:57;63.08;;;37.55;;
67904;SDS011;54709;43.614;1.576;2023-03-05T08:17:22;62.03;;;37.10;;
67904;SDS011;54709;43.614;1.576;2023-03-05T08:19:48;56.55;;;35.72;;
67904;SDS011;54709;43.614;1.576;2023-03-05T08:22:13;56.30;;;36.15;;
67904;SDS011;54709;43.614;1.576;2023-03-05T08:24:41;52.28;;;35.30;;
67904;SDS011;54709;43.614;1.576;2023-03-05T08:27:07;47.75;;;32.95;;
67904;SDS011;54709;43.614;1.576;2023-03-05T08:29:32;50.03;;;33.92;;
67904;SDS011;54709;43.614;1.576;2023-03-05T08:31:57;50.08;;;34.33;;
67904;SDS011;54709;43.614;1.576;2023-03-05T08:34:23;53.83;;;36.47;;
67904;SDS011;54709;43.614;1.576;2023-03-05T08:36:48;45.42;;;32.42;;
67904;SDS011;54709;43.614;1.576;2023-03-05T08:39:14;44.47;;;32.00;;
67904;SDS011;54709;43.614;1.576;2023-03-05T08:41:40;43.60;;;32.47;;
67904;SDS011;54709;43.614;1.576;2023-03-05T08:44:05;46.55;;;32.35;;
67904;SDS011;54709;43.614;1.576;2023-03-05T08:46:31;43.08;;;31.88;;
67904;SDS011;54709;43.614;1.576;2023-03-05T08:48:57;42.88;;;31.92;;
67904;SDS011;54709;43.614;1.576;2023-03-05T08:51:23;42.20;;;30.95;;
67904;SDS011;54709;43.614;1.576;2023-03-05T08:53:50;40.70;;;31.13;;
67904;SDS011;54709;43.614;1.576;2023-03-05T08:56:17;43.85;;;32.03;;
67904;SDS011;54709;43.614;1.576;2023-03-05T08:58:42;42.58;;;31.05;;
67904;SDS011;54709;43.614;1.576;2023-03-05T09:01:08;40.55;;;30.85;;
67904;SDS011;54709;43.614;1.576;2023-03-05T09:03:34;41.28;;;30.80;;
67904;SDS011;54709;43.614;1.576;2023-03-05T09:06:04;44.63;;;31.73;;
67904;SDS011;54709;43.614;1.576;2023-03-05T09:08:31;43.13;;;31.65;;
67904;SDS011;54709;43.614;1.576;2023-03-05T09:10:57;45.40;;;31.08;;
67904;SDS011;54709;43.614;1.576;2023-03-05T09:13:22;44.70;;;30.45;;
67904;SDS011;54709;43.614;1.576;2023-03-05T09:15:58;43.85;;;31.30;;
67904;SDS011;54709;43.614;1.576;2023-03-05T09:18:25;42.22;;;30.25;;
67904;SDS011;54709;43.614;1.576;2023-03-05T09:20:50;42.15;;;31.95;;
67904;SDS011;54709;43.614;1.576;2023-03-05T09:23:16;40.38;;;30.90;;
67904;SDS011;54709;43.614;1.576;2023-03-05T09:25:42;42.75;;;29.63;;
67904;SDS011;54709;43.614;1.576;2023-03-05T09:28:07;43.83;;;30.95;;
67904;SDS011;54709;43.614;1.576;2023-03-05T09:30:33;42.05;;;31.35;;
67904;SDS011;54709;43.614;1.576;2023-03-05T09:33:01;40.72;;;31.58;;
67904;SDS011;54709;43.614;1.576;2023-03-05T09:35:28;44.88;;;31.67;;
67904;SDS011;54709;43.614;1.576;2023-03-05T09:37:54;48.63;;;31.60;;
67904;SDS011;54709;43.614;1.576;2023-03-05T09:40:20;43.13;;;31.27;;
67904;SDS011;54709;43.614;1.576;2023-03-05T09:42:53;45.22;;;31.98;;
67904;SDS011;54709;43.614;1.576;2023-03-05T09:45:27;42.80;;;32.78;;
67904;SDS011;54709;43.614;1.576;2023-03-05T09:53:30;42.30;;;32.50;;
67904;SDS011;54709;43.614;1.576;2023-03-05T09:56:02;38.20;;;30.98;;
67904;SDS011;54709;43.614;1.576;2023-03-05T09:58:39;41.22;;;31.60;;
67904;SDS011;54709;43.614;1.576;2023-03-05T10:01:08;40.75;;;30.35;;
67904;SDS011;54709;43.614;1.576;2023-03-05T10:06:28;43.72;;;31.70;;
67904;SDS011;54709;43.614;1.576;2023-03-05T10:11:58;44.33;;;31.80;;
67904;SDS011;54709;43.614;1.576;2023-03-05T10:14:28;40.72;;;32.30;;
67904;SDS011;54709;43.614;1.576;2023-03-05T10:19:53;42.05;;;30.80;;
67904;SDS011;54709;43.614;1.576;2023-03-05T10:22:27;42.55;;;32.05;;
67904;SDS011;54709;43.614;1.576;2023-03-05T10:25:13;41.78;;;30.13;;
67904;SDS011;54709;43.614;1.576;2023-03-05T10:46:57;36.53;;;28.33;;
67904;SDS011;54709;43.614;1.576;2023-03-05T10:49:29;38.88;;;28.85;;
67904;SDS011;54709;43.614;1.576;2023-03-05T10:59:53;35.65;;;26.70;;
67904;SDS011;54709;43.614;1.576;2023-03-05T11:02:22;37.25;;;26.98;;
67904;SDS011;54709;43.614;1.576;2023-03-05T11:04:48;38.63;;;28.15;;
67904;SDS011;54709;43.614;1.576;2023-03-05T11:09:41;35.08;;;26.02;;
67904;SDS011;54709;43.614;1.576;2023-03-05T11:12:19;35.38;;;27.13;;
67904;SDS011;54709;43.614;1.576;2023-03-05T11:15:05;35.15;;;26.25;;
67904;SDS011;54709;43.614;1.576;2023-03-05T11:25:35;34.78;;;26.45;;
67904;SDS011;54709;43.614;1.576;2023-03-05T11:28:23;39.80;;;27.00;;
67904;SDS011;54709;43.614;1.576;2023-03-05T11:30:57;36.00;;;27.42;;
67904;SDS011;54709;43.614;1.576;2023-03-05T11:33:31;34.93;;;26.53;;
67904;SDS011;54709;43.614;1.576;2023-03-05T11:36:09;35.38;;;26.27;;
67904;SDS011;54709;43.614;1.576;2023-03-05T11:38:53;38.92;;;27.35;;
67904;SDS011;54709;43.614;1.576;2023-03-05T11:41:23;36.47;;;26.98;;
67904;SDS011;54709;43.614;1.576;2023-03-05T11:43:52;34.75;;;27.17;;
67904;SDS011;54709;43.614;1.576;2023-03-05T11:46:18;37.17;;;26.00;;
67904;SDS011;54709;43.614;1.576;2023-03-05T11:48:45;37.75;;;26.95;;
67904;SDS011;54709;43.614;1.576;2023-03-05T11:51:21;36.65;;;25.75;;
67904;SDS011;54709;43.614;1.576;2023-03-05T11:53:54;37.65;;;25.42;;
67904;SDS011;54709;43.614;1.576;2023-03-05T11:58:51;39.80;;;25.35;;
67904;SDS011;54709;43.614;1.576;2023-03-05T12:01:22;35.00;;;25.60;;
67904;SDS011;54709;43.614;1.576;2023-03-05T12:03:49;35.97;;;24.58;;
67904;SDS011;54709;43.614;1.576;2023-03-05T12:06:22;34.75;;;23.50;;
67904;SDS011;54709;43.614;1.576;2023-03-05T12:08:58;36.47;;;23.63;;
67904;SDS011;54709;43.614;1.576;2023-03-05T12:11:29;33.90;;;23.00;;
67904;SDS011;54709;43.614;1.576;2023-03-05T12:14:06;30.88;;;23.48;;
67904;SDS011;54709;43.614;1.576;2023-03-05T12:19:13;36.53;;;24.83;;
67904;SDS011;54709;43.614;1.576;2023-03-05T12:21:42;31.40;;;23.58;;
67904;SDS011;54709;43.614;1.576;2023-03-05T12:32:04;36.13;;;23.55;;
67904;SDS011;54709;43.614;1.576;2023-03-05T12:37:00;31.98;;;22.75;;
67904;SDS011;54709;43.614;1.576;2023-03-05T12:50:02;32.67;;;23.50;;
67904;SDS011;54709;43.614;1.576;2023-03-05T12:52:29;32.78;;;23.90;;
67904;SDS011;54709;43.614;1.576;2023-03-05T12:57:47;36.45;;;24.90;;
67904;SDS011;54709;43.614;1.576;2023-03-05T13:00:19;33.75;;;23.52;;
67904;SDS011;54709;43.614;1.576;2023-03-05T13:02:51;35.72;;;23.95;;
67904;SDS011;54709;43.614;1.576;2023-03-05T13:05:22;42.05;;;26.27;;
67904;SDS011;54709;43.614;1.576;2023-03-05T13:07:50;36.80;;;24.33;;
67904;SDS011;54709;43.614;1.576;2023-03-05T13:10:20;35.95;;;24.08;;
67904;SDS011;54709;43.614;1.576;2023-03-05T13:12:50;37.97;;;25.33;;
67904;SDS011;54709;43.614;1.576;2023-03-05T13:15:17;37.63;;;25.42;;
67904;SDS011;54709;43.614;1.576;2023-03-05T13:17:49;35.42;;;25.42;;
67904;SDS011;54709;43.614;1.576;2023-03-05T13:23:08;33.45;;;24.40;;
67904;SDS011;54709;43.614;1.576;2023-03-05T13:25:38;37.08;;;26.08;;
67904;SDS011;54709;43.614;1.576;2023-03-05T13:28:05;39.38;;;25.83;;
67904;SDS011;54709;43.614;1.576;2023-03-05T13:30:35;41.45;;;26.15;;
67904;SDS011;54709;43.614;1.576;2023-03-05T13:33:01;37.00;;;25.88;;
67904;SDS011;54709;43.614;1.576;2023-03-05T13:35:29;35.95;;;25.77;;
67904;SDS011;54709;43.614;1.576;2023-03-05T13:37:56;36.10;;;25.02;;
67904;SDS011;54709;43.614;1.576;2023-03-05T13:40:23;34.55;;;24.23;;
67904;SDS011;54709;43.614;1.576;2023-03-05T13:42:50;33.40;;;24.27;;
67904;SDS011;54709;43.614;1.576;2023-03-05T13:47:54;34.47;;;24.35;;
67904;SDS011;54709;43.614;1.576;2023-03-05T13:50:24;37.03;;;24.67;;
67904;SDS011;54709;43.614;1.576;2023-03-05T13:53:24;37.10;;;24.42;;
67904;SDS011;54709;43.614;1.576;2023-03-05T13:56:01;34.92;;;24.42;;
67904;SDS011;54709;43.614;1.576;2023-03-05T14:03:39;42.13;;;24.85;;
67904;SDS011;54709;43.614;1.576;2023-03-05T14:06:10;33.72;;;23.30;;
67904;SDS011;54709;43.614;1.576;2023-03-05T14:08:36;33.53;;;24.52;;
67904;SDS011;54709;43.614;1.576;2023-03-05T14:11:14;34.55;;;24.00;;
67904;SDS011;54709;43.614;1.576;2023-03-05T14:13:41;36.78;;;25.65;;
67904;SDS011;54709;43.614;1.576;2023-03-05T14:16:12;36.47;;;23.92;;
67904;SDS011;54709;43.614;1.576;2023-03-05T14:18:59;35.13;;;23.20;;
67904;SDS011;54709;43.614;1.576;2023-03-05T14:21:46;37.45;;;23.55;;
67904;SDS011;54709;43.614;1.576;2023-03-05T14:24:14;35.58;;;23.05;;
67904;SDS011;54709;43.614;1.576;2023-03-05T14:26:52;36.60;;;22.70;;
67904;SDS011;54709;43.614;1.576;2023-03-05T14:29:25;39.35;;;24.83;;
67904;SDS011;54709;43.614;1.576;2023-03-05T14:31:59;39.85;;;24.48;;
67904;SDS011;54709;43.614;1.576;2023-03-05T14:34:30;34.85;;;24.10;;
67904;SDS011;54709;43.614;1.576;2023-03-05T14:36:57;41.60;;;25.17;;
67904;SDS011;54709;43.614;1.576;2023-03-05T14:39:33;33.90;;;23.48;;
67904;SDS011;54709;43.614;1.576;2023-03-05T14:44:53;35.78;;;22.48;;
67904;SDS011;54709;43.614;1.576;2023-03-05T14:47:20;36.08;;;22.92;;
67904;SDS011;54709;43.614;1.576;2023-03-05T14:49:48;34.33;;;23.02;;
67904;SDS011;54709;43.614;1.576;2023-03-05T14:52:14;34.85;;;22.63;;
67904;SDS011;54709;43.614;1.576;2023-03-05T14:54:44;34.75;;;23.45;;
67904;SDS011;54709;43.614;1.576;2023-03-05T14:57:12;36.65;;;23.95;;
67904;SDS011;54709;43.614;1.576;2023-03-05T14:59:40;33.60;;;23.20;;
67904;SDS011;54709;43.614;1.576;2023-03-05T15:02:12;36.17;;;21.67;;
67904;SDS011;54709;43.614;1.576;2023-03-05T15:04:41;43.72;;;23.25;;
67904;SDS011;54709;43.614;1.576;2023-03-05T15:07:09;39.08;;;23.27;;
67904;SDS011;54709;43.614;1.576;2023-03-05T15:09:40;32.88;;;21.60;;
67904;SDS011;54709;43.614;1.576;2023-03-05T15:12:05;36.30;;;22.00;;
67904;SDS011;54709;43.614;1.576;2023-03-05T15:14:30;36.47;;;22.25;;
67904;SDS011;54709;43.614;1.576;2023-03-05T15:16:56;34.08;;;21.52;;
67904;SDS011;54709;43.614;1.576;2023-03-05T15:19:21;36.70;;;22.23;;
67904;SDS011;54709;43.614;1.576;2023-03-05T15:21:47;31.98;;;20.85;;
67904;SDS011;54709;43.614;1.576;2023-03-05T15:24:12;34.42;;;22.05;;
67904;SDS011;54709;43.614;1.576;2023-03-05T15:26:38;32.85;;;22.13;;
67904;SDS011;54709;43.614;1.576;2023-03-05T15:29:04;34.55;;;21.20;;
67904;SDS011;54709;43.614;1.576;2023-03-05T15:31:29;33.83;;;21.45;;
67904;SDS011;54709;43.614;1.576;2023-03-05T15:33:59;33.97;;;21.50;;
67904;SDS011;54709;43.614;1.576;2023-03-05T15:36:24;30.80;;;21.20;;
67904;SDS011;54709;43.614;1.576;2023-03-05T15:38:50;33.17;;;20.45;;
67904;SDS011;54709;43.614;1.576;2023-03-05T15:41:15;33.03;;;20.70;;
67904;SDS011;54709;43.614;1.576;2023-03-05T15:43:41;31.45;;;21.23;;
67904;SDS011;54709;43.614;1.576;2023-03-05T15:46:07;31.27;;;20.35;;
67904;SDS011;54709;43.614;1.576;2023-03-05T15:48:32;35.17;;;20.38;;
67904;SDS011;54709;43.614;1.576;2023-03-05T15:50:57;34.22;;;20.77;;
67904;SDS011;54709;43.614;1.576;2023-03-05T15:53:23;30.33;;;20.75;;
67904;SDS011;54709;43.614;1.576;2023-03-05T15:55:48;30.17;;;20.30;;
67904;SDS011;54709;43.614;1.576;2023-03-05T15:58:14;31.02;;;20.38;;
67904;SDS011;54709;43.614;1.576;2023-03-05T16:00:40;28.85;;;20.42;;
67904;SDS011;54709;43.614;1.576;2023-03-05T16:03:06;31.95;;;20.70;;
67904;SDS011;54709;43.614;1.576;2023-03-05T16:05:32;33.67;;;21.02;;
67904;SDS011;54709;43.614;1.576;2023-03-05T16:07:58;29.48;;;19.30;;